Startpagina
METAR-TAF:

METAR-TAF

Vliegvelden :

Luchthaven Shanghai Pudong

Shanghai-Pudong, China

breedte: 31-07N, lengte: 121-46E, hoogte: 4 m

Actueel weer

Dit bericht is 28 minuten geleden gemaakt, om 23:30 UTC
Wind 10 kt uit het zuidoosten
Temperatuur 25°C
Vochtigheid 83%
Druk 1005 hPa
Zicht: 8000 m
Gebroken wolken op 900 ft

METAR: ZSPD 172330Z 14005MPS 8000 BKN009 25/22 Q1005 NOSIG

Tijdstip: 07:58 (23:58 UTC)

Verwachting

Dit bericht is 2 uur en het 46 minuten geleden gemaakt, om 21:12 UTC
Verwachting geldig van 18 om 00 UTC tot 18 om 24 UTC
Wind 8 kt uit het oostzuidoosten
Zicht: 5000 m
Gebroken wolken op 1100 ft
nevel

TAF: ZSPD 172112Z 1800/1824 12004MPS 5000 BR BKN011 TX30/1806Z TN22/1821Z

Waarnemingen en weersverwachtingen van meer dan 4000 vliegvelden (METAR en TAF).

De beschikbare stations zijn de gele en rode punten op de kaart.

Ga met uw muis naar het station om de naam te zien.

Klik dan om waarnemingen en weersverwachtingen te zien.

kaart wijzigen: klik op de groene knoppen met een zwart kruis om in te zoomen, op de groene knop met een streepje om uit te zoomen of op de groene pijlen voor aangrenzende kaarten.


METAR-TAF: